arxmliv
arxmliv build tool
 
KWARC group
LaTeXML
About
   
 

Detailed info

Back to Homepage

List of missing_macros

No. Date Filename num_warningnum_errornum_xmargok_xmargnum_xmathok_xmathMissing macros
34001 2013-04-11 09:34:36 /1108/1108.0884 990000[{keywords}, \ls, {comment}, \affiliation, \ns].
34002 2013-04-11 09:34:21 /1108/1108.0867 3350000[\authorinfo, \skiplinehalf, \acknowledgments, \keywords, \supit]; 1 missing file[spie.cls].
34003 2013-04-11 09:34:20 /1108/1108.0863 68200000[\thm@postskip, \thm@preskip].
34004 2013-04-11 09:33:31 /1108/1108.0862 4540000[\listofchanges, \unit, \minus, \definechangesauthor].
34005 2013-04-11 09:33:28 /1108/1108.0875 250000[\extrasenglish, \geometry, \dateenglish, \captionsenglish]; 1 missing file[esint.sty].
34006 2013-04-11 09:33:25 /1108/1108.0856 120000[\Today]; 1 missing file[soul.sty].
34007 2013-04-11 09:32:46 /1108/1108.0865 730000[\mr, \br, \ead].
34008 2013-04-11 09:32:03 /1108/1108.0808 2240000[Align, \xymatrix, \ar]; 1 missing file[xy.sty].
34009 2013-04-11 09:32:00 /1108/1108.0501 310000[\linenumbers].
34010 2013-04-11 09:31:56 /1108/1108.0829 25220000[\natu, \lat, \N, \gr, \ub, \MMO, \phy, \sMMO, \id, \expect, \sLQC, \sgn, \Cyl, \APS, \integ, \Hil, \lPl, \re, \rd, \Pl, \kin]; 1 missing file[LQC-symbols.sty].
34011 2013-04-11 09:31:41 /1108/1108.0843 18140000[{cor}, {prop}, \titlecomment, \lsuper, \lmcsheading, \keywords, \address, \rsuper, \email, \subjclass, {rem}, {lem}, {thm}, {defi}]; 1 missing file[LMCS.cls].
34012 2013-04-11 09:31:21 /1108/1108.0844 180000[\includegraphics, \ShortTitle, \email, \FullConference, \acknowledgments, \speaker]; 1 missing file[PoS.cls].
34013 2013-04-11 09:31:15 /1108/1108.0822 18420000[\sname, \doi, \bolds, \syear, \affiliation, \printaddresses, \volume, \sv@tabnotetext, \address, \sdatatype, \stitle, \dvtx, \corref, \firstpage, \sdescription, \received, \citeauthoryear, \kwd, \snm, \smonth, {aug}, \issue, {asp}, \runauthor, \revised,
34014 2013-04-11 09:31:12 /1108/1108.0828 0360000[\includegraphics, \affil, \citep, \citet, \tableline, \acknowledgements, \resetcounters]; 1 missing file[asp2010.sty].
34015 2013-04-11 09:30:48 /1108/1108.0797 1250000[Align, \xymatrix, \ar]; 2 missing files[type1cm.sty, xy.sty].
34016 2013-04-11 09:30:40 /1108/1108.0733 3740000[Align, \xymatrix, \ar]; 1 missing file[xy.sty].
34017 2013-04-11 09:30:38 /1108/1108.0762 29110000[\alpheqn, \reseteqn, \resetfig, \thechapter, \resettab, \resec, \retab, \resetsec, \refig]; 3 missing files[authyear.sty, {macro_lib.tex}, thesis.cls].
34018 2013-04-11 09:30:34 /1108/1108.0775 39550000[\psplot, \psset, \affiliation, \volume, \DOI, \thechapter, \subfloat, \journal, \psline, {acknowledgements}, \pubyear, \articletitle, {pspicture}, \copyrightowner, \issue, \psdots, \@currentID, \subref, \authorname, {proof}, \isbn]; 2 missing files[now_a
34019 2013-04-11 09:29:47 /1108/1108.0791 1920000[\braket, \ket].
34020 2013-04-11 09:29:45 /1108/1108.0801 1220000[{threeparttable}]; 1 missing file[threeparttable.sty].
34021 2013-04-11 09:29:42 /1108/1108.0793 13400000[\doi, \syear, \affiliation, \printaddresses, \thankstext, \volume, \sv@tabnotetext, \address, \thanksref, \sdatatype, \stitle, \operatorname, \corref, \firstpage, \sdescription, \received, \citeauthoryear, \kwd, \snm, \smonth, {aug}, \issue, \runauthor,
34022 2013-04-11 09:29:22 /1108/1108.0756 3010000[\theappendix].
34023 2013-04-11 09:29:02 /1108/1108.0770 4670000[\Book, \Publ, \pacs, \Name, \institute, \Year, \REVIEW]; 1 missing file[epl2.cls].
34024 2013-04-11 09:29:02 /1108/1108.0780 250000[{theacknowledgments}, \layoutstyle, \classification]; 2 missing files[grffile.sty, {aipcheck}].
34025 2013-04-11 09:28:57 /1108/1108.0766 7380000[\sname, \doi, \syear, \affiliation, \printaddresses, \thankstext, \volume, \address, \thanksref, \sdatatype, \stitle, \operatorname, \corref, \firstpage, \url, \sdescription, \received, \citeauthoryear, \kwd, \snm, \smonth, {aug}, \issue, \runauthor, \re
34026 2013-04-11 09:28:13 /1108/1108.0755 8360000[\doi, \bolds, \syear, \affiliation, \printaddresses, \thankstext, \volume, \address, \thanksref, \operatorname, \corref, \firstpage, \received, \citeauthoryear, \kwd, \mathbb, \snm, \smonth, {aug}, \issue, \runauthor, \revised, {frontmatter}, \citeyear,
34027 2013-04-11 09:28:04 /1108/1108.0683 171980000[\vtwist, \vunder, \newdir, \crv, \xy, \xygraph, \endxy, \xcapv, \mathds, {sideways}, \hover, \POS, Align, \xyoption, \hcap, \dir, \vcap, \hole]; 3 missing files[pdflscape.sty, xy.sty, sidecap.sty].
34028 2013-04-11 09:28:00 /1108/1108.0754 5310000[\citeyear, \doi, \bolds, \syear, \affiliation, \printaddresses, \runtitle, \volume, \sv@tabnotetext, \address, \operatorname, \corref, \firstpage, \received, \pubyear, \citeauthoryear, \kwd, \MR, \mathbb, \lastpage, \snm, {keyword}, \fnms, \smonth, {aug}
34029 2013-04-11 09:27:55 /1108/1108.0747 920000[\keywords]; 1 missing file[IJCIR.sty].
34030 2013-04-11 09:27:48 /1108/1108.0751 650000[\includegraphics, \kword, \abst, \inst, \acknowledgements]; 1 missing file[jpsj3.cls].
34031 2013-04-11 09:27:42 /1108/1108.0737 430000[\bibinfo, \fancyplain]; 1 missing file[abstract.sty].
34032 2013-04-11 09:27:37 /1108/1108.0742 230000[\theappendix, \midrule, \bottomrule].
34033 2013-04-11 09:27:14 /1108/1108.0727 230000[\tnoteref, \tnotetext, \cortext].
34034 2013-04-11 09:27:07 /1108/1108.0745 850000[\extrasenglish, \geometry, \dateenglish, \captionsenglish]; 1 missing file[mathtext.sty].
34035 2013-04-11 09:26:12 /1108/1108.0707 030000[\mr, \br, \ead].
34036 2013-04-11 09:25:57 /1108/1108.0706 030000[\extrasenglish, \dateenglish, \captionsenglish].
34037 2013-04-11 09:25:49 /1108/1108.0697 1810000[\theappendix].
34038 2013-04-11 09:25:47 /1108/1108.0643 15060000[\extrasenglish, \thechapter@ID, \geometry, \dateenglish, \captionsenglish]; 1 missing file[esint.sty].
34039 2013-04-11 09:25:42 /1108/1108.0688 88240000[{turn}].
34040 2013-04-11 09:25:41 /1108/1108.0705 470000[\bra, \ket].
34041 2013-04-11 09:25:28 /1108/1108.0669 2030000[Align, {longtable}].
34042 2013-04-11 09:25:24 /1108/1108.0690 11940000[Align, \xymatrix, \ar]; 1 missing file[xy.sty].
34043 2013-04-11 09:25:15 /1108/1108.0653 115150000[\figurespage, \copyrightpage, \submissionmonth, \director, \phd, \campus, \dedication, \submissionyear, \thechapter, \afterpreface, \beforepreface, \@currentID, \program, \acknowledgements, \tablespage]; 1 missing file[mnthesis_new.cls].
34044 2013-04-11 09:25:08 /1108/1108.0702 130000[{theacknowledgments}, \layoutstyle, \classification].
34045 2013-04-11 09:24:44 /1108/1108.0652 18360000[Align, \mathds, \mapsfrom, \xymatrix, \ar]; 1 missing file[xy.sty].
34046 2013-04-11 09:24:42 /1108/1108.0662 64430000[{singlespace}, \copyrightyear, \thesistableofcontents, \theappendix, \thesisepigraph, \thesiscoauthorship, {sidewaystable}, \thechapter, \thesisabstract, \readertwo, \thesisacknowledgments, \thesisdedication, \dept, \mactitlepage, \thesislistoffigures, \
34047 2013-04-11 09:24:28 /1108/1108.0676 3210000[\mathds].
34048 2013-04-11 09:24:23 /1108/1108.0693 120000[\al@2002ASPC..276..182L,
34049 2013-04-11 09:24:06 /1108/1108.0679 150000[{keywords}, {comment}, \PARstart, \IEEEpeerreviewmaketitle, {proof}]; 1 missing file[IEEEtran.cls].
34050 2013-04-11 09:23:57 /1108/1108.0670 2240000[\extrasenglish, \geometry, \dateenglish, \captionsenglish].
34051 2013-04-11 09:23:46 /1108/1108.0681 4140000[\includegraphics, \affil, \mnras, \apj, \lesssim, \citep, \acknowledgements, \resetcounters, \aap]; 1 missing file[asp2010.sty].
34052 2013-04-11 09:23:38 /1108/1108.0666 010000[\onltab].
34053 2013-04-11 09:23:35 /1108/1108.0685 040000[{theacknowledgments}, \layoutstyle, \classification]; 1 missing file[{aipcheck}].
34054 2013-04-11 09:23:28 /1108/1108.0592 16460000[\calligra, \captionsfrenchb, \nouppercase].
34055 2013-04-11 09:23:05 /1108/1108.0673 020000[Align, \biboptions].
34056 2013-04-11 09:23:00 /1108/1108.0675 380000[\inst, \institute, \email, \fnmsep, \titlerunning, \arcsec, \authorrunning, \acknowledgements].
34057 2013-04-11 09:22:18 /1108/1108.0665 080000[\captionsamerican, \extrasenglish, Align, \dateamerican, \noextrasenglish, \extrasamerican, \dateenglish, \captionsenglish].
34058 2013-04-11 09:22:12 /1108/1108.0632 3440000[Align, \xymatrix, \ar]; 1 missing file[xy.sty].
34059 2013-04-11 09:22:05 /1108/1108.0635 3410000[\theappendix].
34060 2013-04-11 09:21:42 /1108/1108.0654 010000[\geometry].
34061 2013-04-11 09:21:30 /1108/1108.0640 120000[\xrightleftharpoons]; 1 missing file[chemarr.sty].
34062 2013-04-11 09:21:17 /1108/1108.0634 13970000[Align, \xymatrix, \ar]; 1 missing file[xy.sty].
34063 2013-04-11 09:21:15 /1108/1108.0645 010000[\theappendix].
34064 2013-04-11 09:21:12 /1108/1108.0617 130000[\bra, \set, \ket].
34065 2013-04-11 09:21:10 /1108/1108.0642 120000[\mathds, \@end@institute].
34066 2013-04-11 09:20:58 /1108/1108.0628 6140000[\bra, \QQQ, \SSS, \braket, \mean, \up, \MMM, \calL, \RRR, \dd, \percent, \ket, \dn]; 1 missing file[yllmath.sty].
34067 2013-04-11 09:20:56 /1108/1108.0630 040000[\extrasenglish, \shortrightarrow, \dateenglish, \captionsenglish].
34068 2013-04-11 09:20:45 /1108/1108.0621 510000[\mathds].
34069 2013-04-11 09:20:40 /1108/1108.0619 11170000[\blacksquare, \subfigure, \leqslant, \lesssim, \citep, \booktitle, \harvarditem, \affiliation, \chaptertitle, \country, \includegraphics, \harvardyearleft, \gtrsim, \authors, \harvardand, \text, \harvardyearright]; 1 missing file[intech07.cls].
34070 2013-04-11 09:20:39 /1108/1108.0586 14210000[\midrule].
34071 2013-04-11 09:20:23 /1108/1108.0611 560000[{keywords}, \affiliation, \jvol, \ARinfo, \jname, \jyear]; 1 missing file[ar2e.cls].
34072 2013-04-11 09:20:20 /1108/1108.0606 40770000[\bolds, \syear, \printaddresses, {bmisc}, \volume, \bid, \address, \thanksref, \bfnm, \stitle, \byear, \endbibitem, \received, \mathbb, \bparticle, \snm, \beditor, \btitle, \tfrac, \smonth, \issue, \runauthor, \AND, {barticle}, \citeyear, \borganization,
34073 2013-04-11 09:20:11 /1108/1108.0601 4830000[Align, \xymatrix, \ar].
34074 2013-04-11 09:20:01 /1108/1108.0610 8200000[\resumen, \indexauthor, \shortauthor, \dateenglish, \altaffilmark, \theappendix, {changemargin}, \sun, \extrasenglish, \listofauthors, \shorttitle, \addkeyword, \altaffiltext, \fulladdresses, \captionsenglish].
34075 2013-04-11 09:19:49 /1108/1108.0608 1550000[\unitfrac, \cortext, \linenumbers]; 2 missing files[esint.sty, snapshot.sty].
34076 2013-04-11 09:19:46 /1108/1108.0614 030000[\midrule, \toprule, \bottomrule].
34077 2013-04-11 09:19:21 /1108/1108.0597 130000[\affiliation].
34078 2013-04-11 09:19:19 /1108/1108.0612 080000[\PACSes, \BY, \PACSit, \from, \ETC, \TITLE, \NAME, \instlist].
34079 2013-04-11 09:19:11 /1108/1108.0600 2170000[\subref].
34080 2013-04-11 09:19:02 /1108/1108.0604 3060000[{tablenotes}, \tnote, {threeparttable}]; 1 missing file[threeparttable.sty].
34081 2013-04-11 09:18:59 /1108/1108.0595 40430000[\slashed, \affiliation, \emailAdd, \acknowledgments, \keywords, \includegraphics, \ReportNo, \mathinner]; 1 missing file[jhepmod.sty].
34082 2013-04-11 09:18:44 /1108/1108.0566 264350000[\pt, \pbinv, \ET, \TeV, \cmsinstskip, \hypersetup, \includegraphics, \PT, \cmsAuthorMark, \cmsNoteHeader, \GeV, \text, \RCS]; 1 missing file[cms-tdr.cls].
34083 2013-04-11 09:18:32 /1108/1108.0589 3110000[\rhead, \equal, \lesssim, \lhead, \hypersetup, \href, \ifthenelse, \chead, \url, \text]; 1 missing file[contribution.sty].
34084 2013-04-11 09:18:08 /1108/1108.0581 5840000[\makegapedcells, \setcellgapes]; 2 missing files[sidecap.sty, makecell.sty].
34085 2013-04-11 09:17:48 /1108/1108.0560 880000[\subfloat]; 2 missing files[flafter.sty, parskip.sty].
34086 2013-04-11 09:17:48 /1108/1108.0585 150000[\kword, \abst, \inst, \recdate]; 1 missing file[slashbox.sty].
34087 2013-04-11 09:17:35 /1108/1108.0575 120000[\affiliation]; 2 missing files[tsfp7.cls, flushend.sty].
34088 2013-04-11 09:17:07 /1108/1108.0565 1120000[\theappendix].
34089 2013-04-11 09:17:01 /1108/1108.0548 8250000[\topmargin, \evensidemargin, \textheight, \oddsidemargin, \textwidth].
34090 2013-04-11 09:16:53 /1108/1108.0562 160000[{tocentry}, \email, \setkeys, \affiliation, {suppinfo}, {acknowledgement}]; 1 missing file[achemso.cls].
34091 2013-04-11 09:16:51 /1108/1108.0526 61450000[{sidewaystable}, \midrule, \bottomrule, \arraybackslash]; 3 missing files[warpcol.sty, tipa.sty, varwidth.sty].
34092 2013-04-11 09:16:25 /1108/1108.0542 1680000[\Line, \Photon, \SetColor, \DashArrowLine, \Vertex, \ArrowLine, \Text, \Gluon].
34093 2013-04-11 09:16:16 /1108/1108.0551 940000[Align, \xymatrix, \ar]; 1 missing file[xy.sty].
34094 2013-04-11 09:16:05 /1108/1108.0500 16150000[\colhead, \tablenotetext, \tablehead, \tablecolumns, \tablewidth, \tabletypesize, {deluxetable}, \startdata, Align, \tablecaption, \tablenotemark, \enddata]; 2 missing files[deluxetable.sty, aalongtable.sty].
34095 2013-04-11 09:15:51 /1108/1108.0528 510000[\nicefrac].
34096 2013-04-11 09:15:47 /1108/1108.0447 7860000[Align, \xymatrix, \ar]; 1 missing file[xy.sty].
34097 2013-04-11 09:15:03 /1108/1108.0535 7360000[\mathds, \IEEEPARstart, \IEEEauthorblockA, \IEEEauthorblockN, \IEEEdisplaynotcompsoctitleabstractindextext, \IEEEcompsoctitleabstractindextext, \IEEEpeerreviewmaketitle, {IEEEkeywords}, \ifCLASSOPTIONcompsoc, \ifCLASSINFOpdf]; 1 missing file[IEEEtran.cls
34098 2013-04-11 09:15:02 /1108/1108.0533 3100000[\rhead, \href, \equal, \ifthenelse, \url, \chead, \lhead, \text, \hypersetup]; 1 missing file[contribution.sty].
34099 2013-04-11 09:15:00 /1108/1108.0523 9910000[\theappendix].
34100 2013-04-11 09:14:48 /1108/1108.0518 1430000[{sidewaystable}].
34101 2013-04-11 09:14:03 /1108/1108.0452 280350000[{arabtext}, \transfalse, \thechapter, \epigraph, \lettrine]; 8 missing files[kpfonts.sty, shadow.sty, lipsum.sty, arabtex.sty, lettrine.sty, uiucthesis.cls, ntimes.sty, type1ec.sty].
34102 2013-04-11 09:14:02 /1108/1108.0507 380000[\pacs, \inst, \shorttitle, \Name, \institute, \onefigure, \REVIEW, \acknowledgments]; 1 missing file[epl2.cls].
34103 2013-04-11 09:14:00 /1108/1108.0506 040000[{theacknowledgments}, \layoutstyle, \classification]; 1 missing file[{aipcheck}].
34104 2013-04-11 09:13:23 /1108/1108.0477 3410000[\mathds].
34105 2013-04-11 09:13:22 /1108/1108.0491 4910000[\twocolumn@sw].
34106 2013-04-11 09:13:12 /1108/1108.0476 7590000[{sidewaystable}, \hdashline, {dialogue}, \speak]; 1 missing file[dialogue.sty].
34107 2013-04-11 09:13:07 /1108/1108.0481 16830000[{sideways}]; 2 missing files[colordvi.sty, xy.sty].
34108 2013-04-11 09:13:04 /1108/1108.0490 720000[\fancyplain]; 1 missing file[abstract.sty].
34109 2013-04-11 09:12:58 /1108/1108.0489 280000[\extrasenglish, \pdfpageheight, \pdfpagewidth, \dateenglish, \captionsenglish].
34110 2013-04-11 09:12:13 /1108/1108.0468 123470000[{tikzpicture}, \institute, \path, \draw, \hdashrule, \email, \cellcolor, \scalebox, \url, \texorpdfstring, \tikz, \node, \rotatebox]; 3 missing files[dashrule.sty, eptcs.cls, reo-tikz.sty].
34111 2013-04-11 09:12:03 /1108/1108.0478 210000[\@end@institute].
34112 2013-04-11 09:11:33 /1108/1108.0470 49190000[\email, \lightning, \institute, \normalem]; 2 missing files[eptcs.cls, pslatex.sty].
34113 2013-04-11 09:11:31 /1108/1108.0466 9590000[\arrownot, \inferrule, \institute]; 4 missing files[mathpartir.sty, eptcs.cls, mathbbol.sty, breakurl.sty].
34114 2013-04-11 09:11:24 /1108/1108.0471 115290000[\smiley, \inst, \institute, \normalem]; 4 missing files[marvosym.sty, eptcs.cls, pslatex.sty, breakurl.sty].
34115 2013-04-11 09:11:21 /1108/1108.0467 77110000[\overset, \email, \separated, \inferrule, \xrightarrow, \institute, \text]; 3 missing files[MnSymbol.sty, mathpartir.sty, eptcs.cls].
34116 2013-04-11 09:10:57 /1108/1108.0394 18040000[Align, \xymatrix, \ar]; 1 missing file[xy.sty].
34117 2013-04-11 09:10:38 /1108/1108.0469 420000[\email, \institute]; 1 missing file[eptcs.cls].
34118 2013-04-11 09:10:31 /1108/1108.0398 8830000[\calligra, \subfloat, {comment}].
34119 2013-04-11 09:10:31 /1108/1108.0472 2140000[{overpic}].
34120 2013-04-11 09:10:16 /1108/1108.0396 62100000[{sidewaystable*}, {sidewaysfigure}].
34121 2013-04-11 09:09:56 /1108/1108.0446 3170000[\vs, \zdot, \refitem, {Titlepage}, \SetPages, {references}, \etal, \Abstract, \Author, \Received, \SetVol, \arcs, \FigCap, \Title, \arcm, \ie, \Acknow]; 1 missing file[acta.cls].
34122 2013-04-11 09:09:42 /1108/1108.0450 020000[{CJK*}]; 1 missing file[CJK.sty].
34123 2013-04-11 09:09:35 /1108/1108.0444 15140000[\curveto, \moveto, \lineto, \newpath]; 8 missing files[pst-tree.sty, pst-text.sty, pst-eps.sty, libertine.sty, pst-coil.sty, pst-math.sty, pst-fill.sty, pst-3d.sty].
34124 2013-04-11 09:09:12 /1108/1108.0424 60180000[\bra, {sidewaystable}, \mathds, \DeclarePairedDelimiter, \ket, \bottomrule]; 3 missing files[tensor.sty, mathtools.sty, hypcap.sty].
34125 2013-04-11 09:07:40 /1108/1108.0423 1010000[\psfrag].
34126 2013-04-11 09:06:22 /1108/1108.0403 410000[\@end@institute].
34127 2013-04-11 09:06:21 /1108/1108.0413 1140000[\tablecomments, \tablenotetext, \tablenotemark]; 1 missing file[deluxetable.sty].
34128 2013-04-11 09:06:08 /1108/1108.0311 360180000[{xy}, \quotesinglbase, \newindex, \xymatrix, \nouppercase, \fancyplain, \thechapter, Align, \thechapter@ID, \printindex, \sindex, \ar]; 2 missing files[splitidx.sty, xy.sty].
34129 2013-04-11 09:05:24 /1108/1108.0391 11760000[{IEEEkeywords}, \IEEEPARstart, \psfrag, {IEEEproof}, \balance]; 2 missing files[IEEEtran.cls, balance.sty].
34130 2013-04-11 09:05:21 /1108/1108.0387 310000[\slashed].
34131 2013-04-11 09:05:12 /1108/1108.0371 1840000[Align, \xymatrix, \ar]; 1 missing file[xy.sty].
34132 2013-04-11 09:05:10 /1108/1108.0390 1500000[\meter, \citep, {keyword}, \includegraphics, \address, \cortext, \sep, \FloatBarrier, \citeauthor, \corref, \citet, {frontmatter}, \ead]; 1 missing file[elsarticle_mod.cls].
34133 2013-04-11 09:05:07 /1108/1108.0389 2510000[\affil, \citep, \resetcounters, \includegraphics, \ion, \citeauthor, \citet, \acknowledgements]; 1 missing file[asp2010.sty].
34134 2013-04-11 09:05:05 /1108/1108.0367 2110000[\widecheck].
34135 2013-04-11 09:05:00 /1108/1108.0366 107100000[\Ht, \pt, \ifb, \met, \gev, \tev, \HT, \et]; 2 missing files[atlasphysics.sty, jheppub.sty].
34136 2013-04-11 09:05:00 /1108/1108.0375 13690000[Align, \xymatrixcolsep, \dir, \xymatrix, \newdir, \ar, \xymatrixrowsep]; 1 missing file[xy.sty].
34137 2013-04-11 09:03:59 /1108/1108.0382 0160000[\refb, \captionb, {keywords}, \submitb, \titlehead, \References, \resthead, {authorl}, \titleb, \dgr, \authorb, \addressb, {addressl}, \sectionb, {summary}]; 1 missing file[baltlat6.sty].
34138 2013-04-11 09:03:44 /1108/1108.0361 73160000[\ArrowArcn, \DashArrowLine, \Vertex, \Text, \CCirc, \DashArrowArc, \Line, \ArrowArc, \GlueArc, \SetColor, \ArrowLine, \COval, \DashCArc, \CArc, \DashArrowArcn, \Gluon].
34139 2013-04-11 09:03:15 /1108/1108.0363 41120000[\thefootnotemark, \deffootnote]; 1 missing file[scrartcl.cls].
34140 2013-04-11 09:03:12 /1108/1108.0373 4460000[\nicefrac].
34141 2013-04-11 09:02:52 /1108/1108.0374 3710000[\theappendix].
34142 2013-04-11 09:02:01 /1108/1108.0353 8740000[\tnoteref, Align, \tnotetext, \cortext].
34143 2013-04-11 09:01:38 /1108/1108.0351 37170000[\tbigwedge, \ruTo, \tint, \rTo, \luTo, \tsum, \uTo, Align, \dTo, \diagramstyle, \QATOP, {diagram}].
34144 2013-04-11 09:01:23 /1108/1108.0352 14150000[Align, \xymatrix, \ar]; 9 missing files[xycurve.sty, xymatrix.sty, xyline.sty, xyarrow.sty, xycmtip.sty, xycolor.sty, xyrotate.sty, xyframe.sty, xygraph.sty].
34145 2013-04-11 09:01:02 /1108/1108.0328 22240000[Align, \xymatrix, \ar]; 1 missing file[xy.sty].
34146 2013-04-11 09:00:56 /1108/1108.0321 8430000[{shaded}]; 2 missing files[framed.sty, soul.sty].
34147 2013-04-11 09:00:52 /1108/1108.0323 11820000[\dateUSenglish].
34148 2013-04-11 09:00:42 /1108/1108.0354 6110000[\includegraphics, \ShortTitle, \email, \FullConference, \speaker]; 1 missing file[PoS.cls].
34149 2013-04-11 09:00:38 /1108/1108.0273 3760000[\owedge]; 1 missing file[xy.sty].
34150 2013-04-11 09:00:29 /1108/1108.0333 1430000[\overrideIEEEmargins, \IEEEoverridecommandlockouts, {proof}].
34151 2013-04-11 09:00:28 /1108/1108.0310 14610000[{comment}].
34152 2013-04-11 08:59:43 /1108/1108.0331 1710000[\theappendix].
34153 2013-04-11 08:59:07 /1108/1108.0316 10110000[Align, {numcases}].
34154 2013-04-11 08:58:59 /1108/1108.0322 930000[\boxed]; 2 missing files[hypcap.sty, microtype.sty].
34155 2013-04-11 08:58:58 /1108/1108.0300 6330000[\yng, \Yvcentermath]; 1 missing file[esint.sty].
34156 2013-04-11 08:57:53 /1108/1108.0324 330000[{theacknowledgments}, \layoutstyle, \classification].
34157 2013-04-11 08:57:29 /1108/1108.0312 0120000[\acl, \acresetall, \aclp, \acs, \acrodef, \acp, \ac, \acf]; 4 missing files[textcomp%.sty, mathtools.sty, amsthm%.sty, acronym%.sty].
34158 2013-04-11 08:57:14 /1108/1108.0293 710000[{comment}].
34159 2013-04-11 08:57:11 /1108/1108.0286 630000[\@end@institute, \url]; 1 missing file[type1cm.sty].
34160 2013-04-11 08:56:31 /1108/1108.0291 180000[\includegraphics, {keywords}, \volume, \pubyear]; 1 missing file[jaa.sty].
34161 2013-04-11 08:55:57 /1108/1108.0281 110000[\mathds].
34162 2013-04-11 08:55:47 /1108/1108.0262 16970000[\ruOnto, \rInto, \rTo, \ldOnto, \dOnto, Align, \dTo, \rOnto, \rDotsto, \psfrag, \dDotsto, \rdOnto, \luOnto, {diagram}].
34163 2013-04-11 08:55:45 /1108/1108.0270 610000[\theappendix].
34164 2013-04-11 08:55:30 /1108/1108.0253 102220000[\pt, {overpic}, \ET, \TeV, \MeV, \et, \inb, \ipb, \GeV]; 1 missing file[atlasphysics.sty].
34165 2013-04-11 08:55:17 /1108/1108.0239 24120000[\tnotetext]; 1 missing file[soul.sty].
34166 2013-04-11 08:55:07 /1108/1108.0274 250000[\nicefrac, \extrasenglish, \geometry, \dateenglish, \captionsenglish].
34167 2013-04-11 08:54:31 /1108/1108.0248 230000[\toprule, \bottomrule].
34168 2013-04-11 08:54:18 /1108/1108.0228 6020000[\theappendix, {comment}]; 1 missing file[eptcs.cls].
34169 2013-04-11 08:54:16 /1108/1108.0250 030000[\layoutstyle, \classification]; 1 missing file[{aipcheck.tex}].
34170 2013-04-11 08:54:05 /1108/1108.0240 9320000[\doi, \bolds, \syear, \affiliation, \printaddresses, \thankstext, \volume, \address, \thanksref, \operatorname, \citeauthor, \corref, \firstpage, \received, \citeauthoryear, \kwd, \snm, \smonth, {aug}, \issue, \runauthor, \citet, {frontmatter}, \citeyear
34171 2013-04-11 08:54:05 /1108/1108.0255 030000[\fnref, \cortext, \fntext].
34172 2013-04-11 08:54:03 /1108/1108.0231 71460000[\EdgeL, \SmallPicture, {VCPicture}, \FinalState, \institute, \StateVar, \RstEdgeOffset, \VCDraw, \LargeState, \email, \State, \ForthBackOffset, \ShowFrame]; 3 missing files[MnSymbol.sty, vaucanson-g.sty, eptcs.cls].
34173 2013-04-11 08:53:58 /1108/1108.0230 40940000[\confeq, \altstate, \Fig, \Thm, {lemma}, {theorem}, \autgraphics, \defn, \initstateset, \YY, {example}, \Qdet, \NCONF, \ACT, \psfrag, \ev, \lemm, \rem, \initstate, \abovecaptionskip, \prefix, \sect, \autbox, \hangaut, \XX, \dotcup, \institute, \LANG, \po
34174 2013-04-11 08:53:49 /1108/1108.0218 5450000[Align, \newdir, \xymatrix, \ar]; 1 missing file[xy.sty].
34175 2013-04-11 08:53:45 /1108/1108.0217 8200000[\theequation].
34176 2013-04-11 08:53:38 /1108/1108.0189 292660000[Align, \xymatrix, \hole, \ar]; 9 missing files[xycurve.sty, xymatrix.sty, xyline.sty, xyarrow.sty, xycmtip.sty, xycolor.sty, xyrotate.sty, xyframe.sty, xygraph.sty].
34177 2013-04-11 08:53:29 /1108/1108.0216 880000[\xyoption]; 1 missing file[xy.sty].
34178 2013-04-11 08:52:43 /1108/1108.0181 8570000[Align, \xymatrix, \ar]; 1 missing file[xy.sty].
34179 2013-04-11 08:52:35 /1108/1108.0205 530000[\theappendix].
34180 2013-04-11 08:51:46 /1108/1108.0152 130000[\subfloat, {threeparttable}]; 1 missing file[threeparttable.sty].
34181 2013-04-11 08:51:08 /1108/1108.0187 2330000[\authorblockN, \authorblockA, \IEEEpeerreviewmaketitle]; 1 missing file[IEEEtran.cls].
34182 2013-04-11 08:51:02 /1108/1108.0201 010000[\biboptions].
34183 2013-04-11 08:50:53 /1108/1108.0190 53220000[\citeauthoryear, Align, {keywords}, \xymatrix, \ar]; 2 missing files[xy.sty, mytlp.cls].
34184 2013-04-11 08:50:52 /1108/1108.0175 23550000[\PTPindex, \Braket, \ket, \Ket, \citen].
34185 2013-04-11 08:50:46 /1108/1108.0170 9850000[{keywords}, \PARstart, \IEEEmembership, {proof}, \geometry]; 1 missing file[IEEEtran.cls].
34186 2013-04-11 08:50:19 /1108/1108.0192 1100000[\affaddr, \numberofauthors, \alignauthor, \pdfpageheight, {definition}, \email, \pdfpagewidth, {proof}, \newdef]; 2 missing files[flushend.sty, sig-alternate-10pt.cls].
34187 2013-04-11 08:50:14 /1108/1108.0174 2450000[Align, \xymatrix, \ar]; 1 missing file[xy.sty].
34188 2013-04-11 08:50:02 /1108/1108.0168 6110000[\linenumbers].
34189 2013-04-11 08:49:58 /1108/1108.0172 1710000[{comment}].
34190 2013-04-11 08:49:47 /1108/1108.0171 1820000[\unit]; 1 missing file[breakurl.sty].
34191 2013-04-11 08:49:38 /1108/1108.0158 870000[\citep, \amstitle, \citet, \citealp]; 1 missing file[natlib.sty].
34192 2013-04-11 08:48:52 /1108/1108.0160 1910000[\cortext].
34193 2013-04-11 08:48:51 /1108/1108.0163 260000[\thechapter]; 5 missing files[flafter.sty, ecltree.sty, hypcap.sty, framed.sty, boxedminipage.sty].
34194 2013-04-11 08:48:34 /1108/1108.0140 1450000[\arxivnumber, \affiliation, \emailAdd, \keywords]; 1 missing file[jcappub.sty].
34195 2013-04-11 08:48:20 /1108/1108.0145 1020000[\theappendix, \pdfadjustspacing].
34196 2013-04-11 08:48:11 /1108/1108.0136 1720000[\@currentID].
34197 2013-04-11 08:48:06 /1108/1108.0138 010000[\theappendix].
34198 2013-04-11 08:47:53 /1108/1108.0115 9220000[\setcaptionmargin, \apprge].
34199 2013-04-11 08:47:52 /1108/1108.0128 1980000[\IEEEPARstart, \psfrag, {psfrags}, \IEEEoverridecommandlockouts, {proof}]; 3 missing files[stfloats.sty, slashbox.sty, IEEEtran.cls].
34200 2013-04-11 08:47:44 /1108/1108.0139 040000[\extrasenglish, \dateenglish, \captionsenglish]; 1 missing file[esint.sty].
<<< >>>

[0] [200] [400] [600] [800] [1000] [1200] [1400] [1600] [1800] [2000] [2200] [2400] [2600] [2800] [3000] [3200] [3400] [3600] [3800] [4000] [4200] [4400] [4600] [4800] [5000] [5200] [5400] [5600] [5800] [6000] [6200] [6400] [6600] [6800] [7000] [7200] [7400] [7600] [7800] [8000] [8200] [8400] [8600] [8800] [9000] [9200] [9400] [9600] [9800] [10000] [10200] [10400] [10600] [10800] [11000] [11200] [11400] [11600] [11800] [12000] [12200] [12400] [12600] [12800] [13000] [13200] [13400] [13600] [13800] [14000] [14200] [14400] [14600] [14800] [15000] [15200] [15400] [15600] [15800] [16000] [16200] [16400] [16600] [16800] [17000] [17200] [17400] [17600] [17800] [18000] [18200] [18400] [18600] [18800] [19000] [19200] [19400] [19600] [19800] [20000] [20200] [20400] [20600] [20800] [21000] [21200] [21400] [21600] [21800] [22000] [22200] [22400] [22600] [22800] [23000] [23200] [23400] [23600] [23800] [24000] [24200] [24400] [24600] [24800] [25000] [25200] [25400] [25600] [25800] [26000] [26200] [26400] [26600] [26800] [27000] [27200] [27400] [27600] [27800] [28000] [28200] [28400] [28600] [28800] [29000] [29200] [29400] [29600] [29800] [30000] [30200] [30400] [30600] [30800] [31000] [31200] [31400] [31600] [31800] [32000] [32200] [32400] [32600] [32800] [33000] [33200] [33400] [33600] [33800] [34000] [34200] [34400] [34600] [34800] [35000] [35200] [35400] [35600] [35800] [36000] [36200] [36400] [36600] [36800] [37000] [37200] [37400] [37600] [37800] [38000] [38200] [38400] [38600] [38800] [39000] [39200] [39400] [39600] [39800] [40000] [40200] [40400] [40600] [40800] [41000] [41200] [41400] [41600] [41800] [42000] [42200] [42400] [42600] [42800] [43000] [43200] [43400] [43600] [43800] [44000] [44200] [44400] [44600] [44800] [45000] [45200] [45400] [45600] [45800] [46000] [46200] [46400] [46600] [46800] [47000] [47200] [47400] [47600] [47800] [48000] [48200] [48400] [48600] [48800] [49000] [49200] [49400] [49600] [49800] [50000] [50200] [50400] [50600] [50800] [51000] [51200] [51400] [51600] [51800] [52000] [52200] [52400] [52600] [52800] [53000] [53200] [53400] [53600] [53800] [54000] [54200] [54400] [54600] [54800] [55000] [55200] [55400] [55600] [55800] [56000] [56200] [56400] [56600] [56800] [57000] [57200] [57400] [57600] [57800] [58000] [58200] [58400] [58600] [58800] [59000] [59200] [59400] [59600] [59800] [60000] [60200] [60400] [60600] [60800] [61000] [61200] [61400] [61600] [61800] [62000] [62200] [62400] [62600] [62800] [63000] [63200] [63400] [63600] [63800] [64000] [64200] [64400] [64600] [64800] [65000] [65200] [65400] [65600] [65800] [66000] [66200] [66400] [66600] [66800] [67000] [67200] [67400] [67600] [67800] [68000] [68200] [68400] [68600] [68800] [69000] [69200] [69400] [69600] [69800] [70000] [70200] [70400] [70600] [70800] [71000] [71200] [71400] [71600] [71800] [72000] [72200] [72400] [72600] [72800] [73000] [73200] [73400] [73600] [73800] [74000] [74200] [74400] [74600] [74800] [75000] [75200] [75400] [75600] [75800] [76000] [76200] [76400] [76600] [76800] [77000] [77200] [77400] [77600] [77800] [78000] [78200] [78400] [78600] [78800] [79000] [79200] [79400] [79600] [79800] [80000] [80200] [80400] [80600] [80800] [81000] [81200] [81400] [81600] [81800] [82000] [82200] [82400] [82600] [82800] [83000] [83200] [83400] [83600] [83800] [84000] [84200] [84400] [84600] [84800] [85000] [85200] [85400] [85600] [85800] [86000] [86200] [86400] [86600] [86800] [87000] [87200] [87400] [87600] [87800] [88000] [88200] [88400] [88600] [88800] [89000] [89200] [89400] [89600] [89800] [90000] [90200] [90400] [90600] [90800] [91000] [91200] [91400] [91600] [91800] [92000] [92200] [92400] [92600] [92800] [93000] [93200] [93400] [93600] [93800] [94000] [94200] [94400] [94600] [94800] [95000] [95200] [95400] [95600] [95800] [96000] [96200] [96400] [96600] [96800] [97000] [97200] [97400] [97600] [97800] [98000] [98200] [98400] [98600] [98800] [99000] [99200] [99400] [99600] [99800] [100000] [100200] [100400] [100600] [100800] [101000] [101200] [101400] [101600] [101800] [102000] [102200] [102400] [102600] [102800] [103000] [103200] [103400] [103600] [103800] [104000] [104200] [104400] [104600] [104800] [105000] [105200] [105400] [105600] [105800] [106000] [106200] [106400] [106600] [106800] [107000] [107200] [107400] [107600] [107800] [108000] [108200] [108400] [108600] [108800] [109000] [109200] [109400] [109600] [109800] [110000] [110200] [110400] [110600] [110800] [111000] [111200] [111400] [111600] [111800] [112000] [112200] [112400] [112600] [112800] [113000] [113200] [113400] [113600] [113800] [114000] [114200] [114400] [114600] [114800] [115000] [115200] [115400] [115600] [115800] [116000] [116200] [116400] [116600] [116800] [117000] [117200] [117400] [117600] [117800] [118000] [118200] [118400] [118600] [118800] [119000] [119200] [119400] [119600] [119800] [120000] [120200] [120400] [120600] [120800] [121000] [121200] [121400] [121600] [121800] [122000] [122200] [122400] [122600] [122800] [123000] [123200] [123400] [123600] [123800] [124000] [124200] [124400] [124600] [124800] [125000] [125200] [125400] [125600] [125800] [126000] [126200] [126400] [126600] [126800] [127000] [127200] [127400] [127600] [127800] [128000] [128200] [128400] [128600] [128800] [129000] [129200] [129400] [129600] [129800] [130000] [130200] [130400] [130600] [130800] [131000] [131200] [131400] [131600] [131800] [132000] [132200] [132400] [132600] [132800] [133000] [133200] [133400] [133600] [133800] [134000] [134200] [134400] [134600] [134800] [135000] [135200] [135400] [135600] [135800] [136000] [136200] [136400] [136600] [136800] [137000] [137200] [137400] [137600] [137800] [138000] [138200] [138400] [138600] [138800] [139000] [139200] [139400] [139600] [139800] [140000] [140200] [140400] [140600] [140800] [141000] [141200] [141400] [141600] [141800] [142000] [142200] [142400] [142600] [142800] [143000] [143200] [143400] [143600] [143800] [144000] [144200] [144400] [144600] [144800] [145000] [145200] [145400] [145600] [145800] [146000] [146200] [146400] [146600] [146800] [147000] [147200] [147400] [147600] [147800] [148000] [148200] [148400] [148600] [148800] [149000] [149200] [149400] [149600] [149800] [150000] [150200] [150400] [150600] [150800] [151000] [151200] [151400] [151600] [151800] [152000] [152200] [152400] [152600] [152800] [153000] [153200] [153400] [153600] [153800] [154000] [154200] [154400] [154600] [154800] [155000] [155200] [155400] [155600] [155800] [156000] [156200] [156400] [156600] [156800] [157000] [157200] [157400] [157600] [157800] [158000] [158200] [158400] [158600] [158800] [159000] [159200] [159400] [159600] [159800] [160000] [160200] [160400] [160600] [160800] [161000] [161200] [161400] [161600] [161800] [162000] [162200] [162400] [162600] [162800] [163000] [163200] [163400] [163600] [163800] [164000] [164200] [164400] [164600]
 
  The service has been written by
Heinrich Stamerjohanns